Cold Springs, Indiana
Current Conditions -  °F | °C
As of 12:15 PM on Monday 22 Dec 2014 (Local Time) from KANQ Reporting Station
Broken Clouds Broken Clouds  
Wind Chill: 25°   Ceiling: 9000
Heat Index: 32°   Visibility: 10mi
Dew Point: 27°   Wind: 8mph
Humidity: 80%   Direction: 130°SE
Pressure: 29.95"   Gusts: NA
Location:  41.5557°N, 84.8806°W
Report Text: KANQ 221715Z AUTO 13007KT 10SM BKN090 00/M03 A2995 RMK
Loading
Personal Weather Stations






























Interactive Weather Map New forecast layout! Learn more

10-Day Weather Forecast

Advertisements
Track Severe Weather on mobile